createdAt,value
2023-03-26T00:02:14.790Z,6.23
2023-03-26T00:05:21.805Z,5.57
2023-03-26T00:08:24.902Z,7.23
2023-03-26T00:11:31.000Z,6.63
2023-03-26T00:14:36.463Z,10.30
2023-03-26T00:17:39.572Z,7.30
2023-03-26T00:20:42.590Z,5.70
2023-03-26T00:23:46.062Z,5.40
2023-03-26T00:26:53.489Z,5.63
2023-03-26T00:29:59.675Z,4.70
2023-03-26T00:33:03.107Z,5.57
2023-03-26T00:36:10.022Z,10.17
2023-03-26T00:39:14.081Z,5.57
2023-03-26T00:42:17.029Z,4.57
2023-03-26T00:45:22.343Z,5.87
2023-03-26T00:48:41.930Z,4.20
2023-03-26T00:51:47.826Z,4.93
2023-03-26T00:54:53.245Z,4.90
2023-03-26T00:57:56.408Z,4.87
2023-03-26T01:01:03.977Z,3.60
2023-03-26T01:04:27.339Z,5.27
2023-03-26T01:07:31.237Z,5.30
2023-03-26T01:10:38.892Z,5.70
2023-03-26T01:13:45.909Z,5.17
2023-03-26T01:16:54.843Z,4.40
2023-03-26T01:20:07.124Z,4.60
2023-03-26T01:23:10.989Z,4.10
2023-03-26T01:26:37.755Z,3.87
2023-03-26T01:29:52.618Z,3.87
2023-03-26T01:33:03.290Z,6.27
2023-03-26T01:36:13.255Z,8.03
2023-03-26T01:39:25.280Z,5.67
2023-03-26T01:42:38.694Z,8.10
2023-03-26T01:45:46.225Z,5.43
2023-03-26T01:48:51.062Z,6.53
2023-03-26T01:52:00.614Z,5.03
2023-03-26T01:55:04.192Z,4.70
2023-03-26T01:58:15.424Z,4.00
2023-03-26T02:01:27.807Z,4.80
2023-03-26T02:04:37.795Z,5.30
2023-03-26T02:07:47.897Z,4.90
2023-03-26T02:10:57.475Z,4.27
2023-03-26T02:14:01.878Z,4.97
2023-03-26T02:17:04.965Z,3.90
2023-03-26T02:20:10.813Z,3.87
2023-03-26T02:23:16.397Z,3.77
2023-03-26T02:26:21.152Z,4.10
2023-03-26T02:29:43.441Z,3.53
2023-03-26T02:33:06.612Z,3.80
2023-03-26T02:36:19.605Z,4.17
2023-03-26T02:39:23.711Z,6.07
2023-03-26T02:42:34.808Z,6.23
2023-03-26T02:45:39.338Z,5.90
2023-03-26T02:48:43.988Z,5.53
2023-03-26T02:51:56.325Z,4.90
2023-03-26T02:55:03.401Z,4.73
2023-03-26T02:58:07.748Z,4.53
2023-03-26T03:01:18.473Z,3.87
2023-03-26T03:04:28.667Z,5.60
2023-03-26T03:07:31.725Z,4.67
2023-03-26T03:10:37.873Z,6.60
2023-03-26T03:13:46.995Z,4.13
2023-03-26T03:17:00.631Z,4.83
2023-03-26T03:20:07.854Z,5.07
2023-03-26T03:23:10.991Z,6.33
2023-03-26T03:26:17.033Z,7.73
2023-03-26T03:29:26.649Z,5.43
2023-03-26T03:32:31.889Z,8.80
2023-03-26T03:35:39.952Z,4.67
2023-03-26T03:38:45.752Z,6.63
2023-03-26T03:41:53.542Z,5.53
2023-03-26T03:44:56.878Z,6.47
2023-03-26T03:48:20.529Z,5.23
2023-03-26T03:51:24.750Z,6.03
2023-03-26T03:54:34.050Z,8.00
2023-03-26T03:57:44.355Z,5.50
2023-03-26T04:00:53.567Z,7.73
2023-03-26T04:04:16.682Z,5.90
2023-03-26T04:07:31.030Z,4.63
2023-03-26T04:11:03.135Z,7.33
2023-03-26T04:14:36.491Z,7.40
2023-03-26T04:17:53.988Z,8.57
2023-03-26T04:21:02.384Z,7.93
2023-03-26T04:24:08.085Z,6.70
2023-03-26T04:27:35.405Z,6.03
2023-03-26T04:31:03.719Z,7.17
2023-03-26T04:34:24.255Z,7.30
2023-03-26T04:37:49.124Z,7.13
2023-03-26T04:41:00.523Z,10.47
2023-03-26T04:44:23.219Z,6.37
2023-03-26T04:47:31.592Z,6.83
2023-03-26T04:50:34.578Z,8.13
2023-03-26T04:53:39.246Z,6.27
2023-03-26T04:57:04.407Z,5.77
2023-03-26T05:00:19.375Z,5.83
2023-03-26T05:03:31.278Z,6.13
2023-03-26T05:06:39.760Z,7.57
2023-03-26T05:09:52.767Z,6.63
2023-03-26T05:13:00.318Z,4.20
2023-03-26T05:16:10.755Z,8.67
2023-03-26T05:19:22.068Z,5.67
2023-03-26T05:22:25.728Z,5.37
2023-03-26T05:25:50.681Z,5.97
2023-03-26T05:28:57.938Z,11.70
2023-03-26T05:32:10.312Z,4.57
2023-03-26T05:38:47.268Z,6.40
2023-03-26T05:41:57.998Z,6.33
2023-03-26T05:45:14.843Z,8.37
2023-03-26T05:48:18.456Z,9.10
2023-03-26T05:51:23.401Z,6.43
2023-03-26T05:54:37.289Z,6.63
2023-03-26T05:58:04.219Z,6.37
2023-03-26T06:01:29.330Z,6.17
2023-03-26T06:04:52.524Z,6.40
2023-03-26T06:08:07.359Z,6.33
2023-03-26T06:11:14.377Z,10.27
2023-03-26T06:14:18.722Z,6.30
2023-03-26T06:17:41.582Z,6.77
2023-03-26T06:20:55.378Z,7.50
2023-03-26T06:24:07.829Z,5.27
2023-03-26T06:27:23.570Z,4.57
2023-03-26T06:30:51.330Z,8.47
2023-03-26T06:34:06.838Z,7.73
2023-03-26T06:37:11.174Z,5.63
2023-03-26T06:40:15.892Z,5.57
2023-03-26T06:43:48.109Z,10.40
2023-03-26T06:47:16.357Z,8.53
2023-03-26T06:50:38.311Z,6.80
2023-03-26T06:53:56.978Z,8.10
2023-03-26T06:57:19.556Z,10.60
2023-03-26T07:00:42.208Z,10.07
2023-03-26T07:04:13.110Z,8.00
2023-03-26T07:07:34.717Z,6.03
2023-03-26T07:11:22.252Z,8.60
2023-03-26T07:14:48.610Z,6.43
2023-03-26T07:18:15.008Z,8.77
2023-03-26T07:21:21.917Z,9.20
2023-03-26T07:24:26.353Z,6.27
2023-03-26T07:27:54.360Z,6.07
2023-03-26T07:31:22.797Z,5.63
2023-03-26T07:34:47.269Z,9.30
2023-03-26T07:38:24.688Z,4.20
2023-03-26T07:41:48.116Z,7.10
2023-03-26T07:45:27.332Z,5.67
2023-03-26T07:48:43.740Z,7.47
2023-03-26T07:51:52.056Z,7.53
2023-03-26T07:55:15.920Z,4.40
2023-03-26T07:59:07.925Z,8.87
2023-03-26T08:02:36.915Z,4.17
2023-03-26T08:06:08.264Z,6.73
2023-03-26T08:09:24.901Z,5.30
2023-03-26T08:12:49.407Z,8.53
2023-03-26T08:16:05.795Z,7.30
2023-03-26T08:19:30.923Z,10.37
2023-03-26T08:22:40.952Z,8.83
2023-03-26T08:25:54.683Z,6.30
2023-03-26T08:29:12.026Z,4.83
2023-03-26T08:32:17.792Z,6.07
2023-03-26T08:35:20.796Z,9.60
2023-03-26T08:38:24.335Z,7.97
2023-03-26T08:42:08.856Z,12.53
2023-03-26T08:45:58.913Z,6.10
2023-03-26T08:49:42.308Z,6.43
2023-03-26T08:53:28.145Z,8.53
2023-03-26T08:56:53.776Z,8.53
2023-03-26T09:00:38.891Z,6.97
2023-03-26T09:04:17.921Z,7.37
2023-03-26T09:08:07.502Z,6.63
2023-03-26T09:11:38.238Z,7.17
2023-03-26T09:15:22.176Z,7.03
2023-03-26T09:19:16.540Z,5.73
2023-03-26T09:23:15.062Z,5.00
2023-03-26T09:26:40.246Z,4.63
2023-03-26T09:30:21.113Z,5.77
2023-03-26T09:33:55.963Z,6.17
2023-03-26T09:37:27.435Z,5.07
2023-03-26T09:40:39.629Z,5.27
2023-03-26T09:44:45.697Z,7.23
2023-03-26T09:48:07.465Z,6.93
2023-03-26T09:51:46.488Z,4.23
2023-03-26T09:55:15.385Z,4.50
2023-03-26T09:58:49.717Z,6.30
2023-03-26T10:02:10.980Z,6.60
2023-03-26T10:05:50.988Z,8.20
2023-03-26T10:09:22.544Z,7.00
2023-03-26T10:12:37.397Z,10.10
2023-03-26T10:16:04.253Z,5.47
2023-03-26T10:19:24.868Z,5.97
2023-03-26T10:22:44.393Z,7.03
2023-03-26T10:26:07.146Z,6.83
2023-03-26T10:29:41.262Z,10.97
2023-03-26T10:32:59.322Z,6.83
2023-03-26T10:36:26.750Z,7.97
2023-03-26T10:40:09.874Z,9.87
2023-03-26T10:43:49.765Z,7.50
2023-03-26T10:47:32.100Z,10.37
2023-03-26T10:51:00.923Z,9.13
2023-03-26T10:54:12.318Z,8.70
2023-03-26T10:57:34.914Z,7.87
2023-03-26T11:00:45.493Z,10.13
2023-03-26T11:03:52.651Z,8.83
2023-03-26T11:07:05.204Z,9.93
2023-03-26T11:10:13.697Z,9.23
2023-03-26T11:13:25.593Z,5.70
2023-03-26T11:16:42.428Z,9.00
2023-03-26T11:19:53.324Z,9.67
2023-03-26T11:23:16.564Z,11.83
2023-03-26T11:26:28.633Z,7.47
2023-03-26T11:29:48.858Z,8.37
2023-03-26T11:32:55.797Z,12.07
2023-03-26T11:36:04.782Z,8.63
2023-03-26T11:39:14.618Z,10.80
2023-03-26T11:42:23.394Z,14.27
2023-03-26T11:45:30.748Z,7.10
2023-03-26T11:48:41.801Z,6.00
2023-03-26T11:51:49.772Z,8.03
2023-03-26T11:54:53.245Z,7.97
2023-03-26T11:58:00.651Z,8.93
2023-03-26T12:01:14.918Z,14.40
2023-03-26T12:04:28.200Z,7.70
2023-03-26T12:07:35.634Z,8.10
2023-03-26T12:10:41.313Z,12.80
2023-03-26T12:13:54.354Z,8.23
2023-03-26T12:17:04.608Z,9.37
2023-03-26T12:20:34.703Z,7.10
2023-03-26T12:23:57.034Z,6.87
2023-03-26T12:27:03.536Z,8.50
2023-03-26T12:30:13.865Z,5.90
2023-03-26T12:33:26.039Z,6.80
2023-03-26T12:36:33.300Z,8.40
2023-03-26T12:40:06.516Z,10.70
2023-03-26T12:44:50.878Z,8.30
2023-03-26T12:48:00.392Z,6.33
2023-03-26T12:50:00.297Z,7.13
2023-03-26T12:53:38.444Z,6.37
2023-03-26T12:57:12.250Z,4.73
2023-03-26T13:00:28.789Z,5.50
2023-03-26T13:03:42.710Z,6.47
2023-03-26T13:07:01.547Z,6.20
2023-03-26T13:10:36.081Z,6.80
2023-03-26T13:14:10.565Z,8.17
2023-03-26T13:17:24.665Z,9.90
2023-03-26T13:20:39.715Z,7.03
2023-03-26T13:23:53.139Z,5.60
2023-03-26T13:27:12.347Z,5.07
2023-03-26T13:30:28.700Z,3.60
2023-03-26T13:33:50.647Z,4.40
2023-03-26T13:37:10.567Z,6.27
2023-03-26T13:40:27.228Z,6.00
2023-03-26T13:43:44.816Z,8.43
2023-03-26T13:46:51.834Z,4.87
2023-03-26T13:50:00.601Z,6.90
2023-03-26T13:53:13.415Z,5.47
2023-03-26T13:56:22.104Z,5.03
2023-03-26T13:59:33.590Z,4.73
2023-03-26T14:02:42.540Z,6.70
2023-03-26T14:05:49.609Z,5.97
2023-03-26T14:08:58.730Z,3.70
2023-03-26T14:12:32.709Z,3.43
2023-03-26T14:15:43.315Z,4.80
2023-03-26T14:18:53.640Z,5.23
2023-03-26T14:22:14.027Z,3.47
2023-03-26T14:25:38.945Z,5.87
2023-03-26T14:29:19.686Z,6.10
2023-03-26T14:32:53.709Z,5.63
2023-03-26T14:36:07.941Z,3.17
2023-03-26T14:39:44.807Z,4.43
2023-03-26T14:42:56.590Z,3.93
2023-03-26T14:46:17.675Z,6.10
2023-03-26T14:50:05.020Z,6.47
2023-03-26T14:53:19.772Z,5.30
2023-03-26T14:56:54.333Z,5.37
2023-03-26T15:01:04.018Z,4.17
2023-03-26T15:04:44.535Z,6.50
2023-03-26T15:08:33.343Z,6.27
2023-03-26T15:11:48.046Z,4.20
2023-03-26T15:15:54.210Z,5.03
2023-03-26T15:20:00.736Z,4.83
2023-03-26T15:23:47.238Z,5.70
2023-03-26T15:27:38.236Z,7.00
2023-03-26T15:31:10.833Z,3.40
2023-03-26T15:34:57.249Z,6.13
2023-03-26T15:38:45.332Z,3.17
2023-03-26T15:41:55.178Z,5.70
2023-03-26T15:45:20.349Z,4.37
2023-03-26T15:48:50.635Z,3.77
2023-03-26T15:52:00.704Z,3.73
2023-03-26T15:55:26.409Z,8.90
2023-03-26T15:58:35.378Z,8.77
2023-03-26T16:02:05.177Z,4.57
2023-03-26T16:05:33.171Z,3.93
2023-03-26T16:08:47.471Z,7.53
2023-03-26T16:11:55.352Z,4.40
2023-03-26T16:15:27.719Z,7.30
2023-03-26T16:18:37.145Z,4.03
2023-03-26T16:21:54.389Z,7.07
2023-03-26T16:25:28.537Z,5.93
2023-03-26T16:28:35.779Z,6.00
2023-03-26T16:32:04.745Z,7.90
2023-03-26T16:35:39.876Z,6.97
2023-03-26T16:39:14.746Z,5.23
2023-03-26T16:42:35.717Z,6.80
2023-03-26T16:45:50.562Z,4.07
2023-03-26T16:49:02.120Z,8.63
2023-03-26T16:52:23.880Z,5.63
2023-03-26T16:55:41.057Z,7.97
2023-03-26T16:58:55.935Z,5.83
2023-03-26T17:02:16.099Z,8.83
2023-03-26T17:05:23.804Z,5.23
2023-03-26T17:08:37.187Z,3.97
2023-03-26T17:11:56.530Z,6.83
2023-03-26T17:15:15.266Z,7.23
2023-03-26T17:18:34.277Z,5.67
2023-03-26T17:21:49.113Z,4.77
2023-03-26T17:25:00.350Z,4.10
2023-03-26T17:28:39.452Z,7.37
2023-03-26T17:31:46.217Z,5.30
2023-03-26T17:35:11.155Z,8.47
2023-03-26T17:38:57.947Z,5.63
2023-03-26T17:42:37.006Z,7.10
2023-03-26T17:45:42.071Z,7.17
2023-03-26T17:48:49.709Z,8.53
2023-03-26T17:52:00.001Z,7.20
2023-03-26T17:55:04.429Z,8.23
2023-03-26T17:58:21.726Z,6.13
2023-03-26T18:01:31.268Z,6.33
2023-03-26T18:04:38.867Z,5.90
2023-03-26T18:08:40.689Z,7.93
2023-03-26T18:12:23.066Z,8.33
2023-03-26T18:15:38.829Z,6.47
2023-03-26T18:18:49.675Z,6.20
2023-03-26T18:21:59.561Z,7.87
2023-03-26T18:25:05.244Z,9.33
2023-03-26T18:28:08.257Z,7.17
2023-03-26T18:31:18.576Z,7.30
2023-03-26T18:34:22.263Z,6.87
2023-03-26T18:37:28.276Z,8.63
2023-03-26T18:40:36.191Z,8.50
2023-03-26T18:43:44.498Z,10.77
2023-03-26T18:46:48.049Z,7.50
2023-03-26T18:49:56.456Z,9.73
2023-03-26T18:53:00.972Z,8.13
2023-03-26T18:56:21.497Z,7.77
2023-03-26T18:59:32.027Z,6.97
2023-03-26T19:02:35.778Z,8.10
2023-03-26T19:05:38.969Z,10.90
2023-03-26T19:08:46.266Z,10.87
2023-03-26T19:11:52.230Z,9.17
2023-03-26T19:14:58.629Z,9.70
2023-03-26T19:18:07.291Z,6.60
2023-03-26T19:21:11.194Z,12.93
2023-03-26T19:24:14.931Z,8.77
2023-03-26T19:27:19.271Z,12.60
2023-03-26T19:30:30.282Z,10.80
2023-03-26T19:33:37.017Z,9.40
2023-03-26T19:36:57.975Z,12.33
2023-03-26T19:40:07.652Z,9.30
2023-03-26T19:43:14.707Z,10.97
2023-03-26T19:46:18.712Z,9.17
2023-03-26T19:49:32.835Z,9.73
2023-03-26T19:52:39.398Z,17.50
2023-03-26T19:55:43.393Z,11.13
2023-03-26T19:58:50.072Z,8.97
2023-03-26T20:01:53.499Z,8.03
2023-03-26T20:04:56.951Z,14.63
2023-03-26T20:08:03.164Z,16.23
2023-03-26T20:11:17.529Z,12.27
2023-03-26T20:14:25.889Z,9.73
2023-03-26T20:17:30.833Z,13.13
2023-03-26T20:20:37.028Z,7.77
2023-03-26T20:23:40.906Z,11.03
2023-03-26T20:26:43.880Z,10.90
2023-03-26T20:29:51.559Z,13.60
2023-03-26T20:33:12.417Z,10.93
2023-03-26T20:36:34.232Z,19.03
2023-03-26T20:39:39.605Z,20.73
2023-03-26T20:42:44.603Z,16.40
2023-03-26T20:45:49.713Z,13.27
2023-03-26T20:48:54.054Z,15.00
2023-03-26T20:51:59.414Z,15.23
2023-03-26T20:55:06.159Z,17.57
2023-03-26T20:58:14.021Z,14.90
2023-03-26T21:01:19.704Z,12.77
2023-03-26T21:04:24.221Z,15.90
2023-03-26T21:07:27.269Z,11.17
2023-03-26T21:10:31.350Z,14.90
2023-03-26T21:13:38.700Z,12.17
2023-03-26T21:16:43.962Z,13.37
2023-03-26T21:19:48.313Z,15.23
2023-03-26T21:23:00.108Z,14.50
2023-03-26T21:26:12.540Z,13.13
2023-03-26T21:29:16.287Z,12.83
2023-03-26T21:32:22.485Z,13.60
2023-03-26T21:35:26.751Z,17.23
2023-03-26T21:38:32.318Z,22.23
2023-03-26T21:41:44.702Z,15.20
2023-03-26T21:44:48.438Z,13.37
2023-03-26T21:47:54.045Z,13.53
2023-03-26T21:51:02.376Z,22.07
2023-03-26T21:54:07.404Z,13.20
2023-03-26T21:57:40.505Z,13.77
2023-03-26T22:01:04.690Z,15.23
2023-03-26T22:04:17.018Z,12.13
2023-03-26T22:07:24.847Z,12.87
2023-03-26T22:10:28.442Z,17.47
2023-03-26T22:13:31.466Z,14.20
2023-03-26T22:16:37.125Z,18.43
2023-03-26T22:19:41.905Z,11.40
2023-03-26T22:22:48.562Z,15.87
2023-03-26T22:25:54.120Z,8.53
2023-03-26T22:28:57.786Z,10.33
2023-03-26T22:32:00.838Z,14.33
2023-03-26T22:35:07.029Z,13.67
2023-03-26T22:38:11.673Z,17.53
2023-03-26T22:41:14.894Z,9.87
2023-03-26T22:44:20.302Z,16.17
2023-03-26T22:47:23.648Z,17.40
2023-03-26T22:50:28.368Z,11.20
2023-03-26T22:53:32.273Z,13.17
2023-03-26T22:56:36.131Z,14.97
2023-03-26T22:59:39.562Z,15.87
2023-03-26T23:02:44.760Z,10.40
2023-03-26T23:05:59.478Z,11.23
2023-03-26T23:09:07.012Z,13.10
2023-03-26T23:12:10.054Z,11.07
2023-03-26T23:15:14.178Z,8.87
2023-03-26T23:18:17.774Z,8.07
2023-03-26T23:21:23.082Z,10.93
2023-03-26T23:24:27.072Z,8.80
2023-03-26T23:27:30.014Z,5.80
2023-03-26T23:30:34.088Z,9.77
2023-03-26T23:33:39.478Z,13.70
2023-03-26T23:36:44.809Z,14.30
2023-03-26T23:39:51.294Z,7.33
2023-03-26T23:42:55.506Z,5.60
2023-03-26T23:45:59.430Z,11.47
2023-03-26T23:49:03.861Z,11.93
2023-03-26T23:52:08.328Z,11.83
2023-03-26T23:55:11.562Z,15.10
2023-03-26T23:58:14.865Z,7.70
